East Brunswick, New Jersey
Current Conditions -  °F | °C
As of 4:35 PM on Friday 31 Oct 2014 (Local Time) from KLDJ Reporting Station
Overcast Overcast  
Wind Chill: 57°   Ceiling: 4200
Heat Index: 57°   Visibility: 10mi
Dew Point: 39°   Wind: 8mph
Humidity: 52%   Direction: 20°NNE
Pressure: 29.91"   Gusts: NA
Location:  40.42°N, 74.39°W
Report Text: KLDJ 312035Z AUTO 02007KT 10SM OVC042 14/04 A2991 RMK AO2 T01380040
Loading
Personal Weather Stations






























Interactive Weather Map
Tropical Storm Tracking
New forecast layout! Learn more

10-Day Weather Forecast

Advertisements
Track Severe Weather on mobile